Capitol Logistics 258


TBPB
Grantley Adams International Airport
Bridgetown, BB
TNCM
Princess Juliana International Airport
St. Maarten, SX

Activity Log

Date Flight Route Aircraft Duration
09/01/2020 CPX258 BGI UA632 ANU UB520 ELOPO ULUBA1 B763 1h 27m
11/23/2019 CPX258 BGI UA632 ANU UB520 ELOPO ULUBA1 B763 1h 28m
08/30/2019 CPX258 BGI UA632 ANU B520 ELOPO ULUBA1 B763 1h 18m
06/16/2019 CPX258 BGI UA632 ANU UB520 ELOPO ULUBA1 B763 1h 18m
02/04/2019 CPX258 BGI UA632 ANU UB520 ELOPO ULUBA1 B763 1h 20m

Route Details

Aircraft Information
Primary: Boeing 767-300BDSF
Backup: Not Available
Route Data
Distance: 365nm
Sched. Duration: 1h 00m
Avg. Duration: 1h 22m (+23m)
Times Flown: 5
Recm'd Route: BGI UA632 ANU UB520 ELOPO ULUBA1
Planned Altitude: 36,000ft
Origin Wx: TBPB 291338Z 09025G40KT 9000 -RA FEW010 SCT034 27/24 Q1011 NOSIG
Dest. Wx: TNCM 291300Z 09007KT 060V120 9999 FEW016 28/23 Q1015 RESHRA TEMPO SHRA
Notes:

Financial History
Total Freight: 390,560lbs
Average Load: 78,112lbs/flt
Fuel Used: 68,609lbs
Avg. Fuel Used: 13,722lbs/flt
Fuel Expense: $45,390
Avg. Fuel Expense: $9,078
Avg. Fuel Cost: $0.66/lbs
Total Gross Income: $504,925
Pilot Pay: $985
Total Expenses: $54,792
Total Revenue: $403,178
Average Revenue: $100,985.03